Sedgwick Reserve, California Weather observations

Data are for 10 minute period ending at time listed.
 Day   Time   Solar   Ave.   Ave.  Ave.  Vector  Max.   Baro.   Total    
  of    of     Rad.   Air    Rel.  Wind   Wind   Wind  Press.  Precip.   
Year   Day            Temp.  Hum.  Speed  Dir.   Gust                    
2017   (PST)  Kw/m2    F      %     mph   deg.    mph    mb.     in.     
-------------------------------------------------------------------------
  18    0:40   0.00   42.9    82    4.0   345     7.4   977.0    0.00 
  18    0:50   0.00   43.2    82    3.5   353     6.4   977.0    0.00 
  18    1:00   0.00   42.9    83    2.6   318     6.3   977.0    0.00 
  18    1:10   0.00   44.1    81    0.9   305     2.6   977.2    0.00 
  18    1:20   0.00   43.2    82    1.5   275     2.5   977.2    0.00 
  18    1:30   0.00   42.2    84    0.9   359     2.9   977.0    0.00 
  18    1:40   0.00   42.3    86    1.8   274     3.1   977.1    0.00 
  18    1:50   0.00   42.8    83    4.0     3     6.4   977.1    0.00 
  18    2:00   0.00   42.2    84    1.7   297     6.0   977.0    0.00 
  18    2:10   0.00   42.4    84    2.7   325     4.3   977.1    0.00 
  18    2:20   0.00   41.9    84    0.7   355     3.7   977.0    0.00 
  18    2:30   0.00   40.8    85    1.2     9     2.3   976.9    0.00 
  18    2:40   0.00   40.2    86    0.6     9     2.6   976.7    0.00 
  18    2:50   0.00   39.9    88    0.3   284     1.8   976.6    0.00 
  18    3:00   0.00   39.8    88    2.3   293     3.4   976.5    0.00 
  18    3:10   0.00   38.6    88    3.7   358     5.9   976.3    0.00 
  18    3:20   0.00   39.4    88    1.3   276     2.9   976.2    0.00 
  18    3:30   0.00   39.5    84    0.1   356     2.0   976.2    0.00 
  18    3:40   0.00   38.4    85    1.5     4     4.5   976.2    0.00 
  18    3:50   0.00   38.3    87    1.0   324     2.8   976.3    0.00 
  18    4:00   0.00   38.5    84    0.6    13     3.1   976.3    0.00 
  18    4:10   0.00   37.9    86    1.0   348     3.8   976.2    0.00 
  18    4:20   0.00   38.1    89    3.2   273     5.0   976.2    0.00 
  18    4:30   0.00   38.9    86    2.2     0     3.6   976.2    0.00 
  18    4:40   0.00   39.3    85    0.9   310     2.4   976.1    0.00 
  18    4:50   0.00   39.2    82    2.5     5     4.7   976.2    0.00 
  18    5:00   0.00   39.4    82    2.9   336     5.4   976.4    0.00 
  18    5:10   0.00   41.1    78    3.8   342     6.6   976.6    0.00 
  18    5:20   0.00   41.6    77    2.1   309     4.7   976.8    0.00 
  18    5:30   0.00   42.4    79    3.3   296     6.1   977.1    0.00 
  18    5:40   0.00   42.5    77    2.2   299     5.3   977.3    0.00 
  18    5:50   0.00   43.1    77    1.2   340     3.0   977.5    0.00 
  18    6:00   0.00   42.3    78    0.1   288     1.5   977.6    0.00 
  18    6:10   0.00   42.5    80    0.4   250     1.3   977.7    0.00 
  18    6:20   0.00   43.0    79    0.8   302     2.0   977.7    0.00 
  18    6:30   0.00   43.5    78    0.9   311     2.0   977.7    0.00 
  18    6:40   0.00   42.4    79    0.2    50     0.9   977.7    0.00 
  18    6:50   0.00   42.0    81    0.1    37     1.3   977.6    0.00 
  18    7:00   0.00   41.2    84    1.2   294     3.4   977.4    0.00 
  18    7:10   0.01   41.4    85    3.3   274     4.3   977.5    0.00 
  18    7:20   0.03   42.2    83    3.5   283     5.1   977.6    0.00 
  18    7:30   0.09   41.9    82    3.3   358     5.0   977.6    0.00 
  18    7:40   0.16   42.4    83    3.1     6     5.0   977.6    0.00 
  18    7:50   0.17   44.2    81    0.5   359     2.3   977.6    0.00 
  18    8:00   0.19   45.3    80    1.1   340     3.1   977.9    0.00 
  18    8:10   0.07   46.6    77    0.6   352     2.3   978.3    0.00 
  18    8:20   0.04   46.5    78    1.1    92     3.1   978.5    0.00 
  18    8:30   0.06   46.3    80    1.4    64     3.3   978.6    0.00 
  18    8:40   0.08   46.8    77    1.6    84     4.2   978.7    0.00 
  18    8:50   0.09   47.1    78    3.0    98     4.2   978.5    0.00 
  18    9:00   0.08   47.4    80    1.6   142     3.0   978.3    0.00 
  18    9:10   0.10   47.9    78    1.4   159     3.2   978.2    0.00 
  18    9:20   0.15   48.7    74    1.2   198     3.1   978.2    0.00 
  18    9:30   0.15   50.0    73    5.9   122    12.5   977.9    0.00 
  18    9:40   0.17   51.5    70    8.0   131    13.3   977.7    0.00 
  18    9:50   0.19   52.1    70    7.1   132    12.0   977.6    0.00 
  18   10:00   0.17   52.8    69    9.0   125    13.6   977.6    0.00 
  18   10:10   0.15   53.1    68    9.0   115    14.4   977.5    0.00 
  18   10:20   0.18   53.6    67    6.9   122    11.7   977.4    0.00 
  18   10:30   0.21   54.0    66    7.4   120    12.0   977.2    0.00 
  18   10:40   0.37   55.2    63    7.2   124    12.7   977.1    0.00 
  18   10:50   0.24   55.8    64    8.2   141    12.1   977.0    0.00 
  18   11:00   0.17   55.5    64    6.6   144     9.8   977.0    0.00 
  18   11:10   0.22   55.7    64    6.8   154     9.9   977.0    0.00 
  18   11:20   0.25   56.0    64    8.5   150    12.2   976.9    0.00 
  18   11:30   0.17   55.5    64    9.9   163    14.5   976.9    0.00 
  18   11:40   0.15   54.9    66    8.0   172    12.6   977.2    0.00 
  18   11:50   0.19   54.2    67   10.6   164    20.2   977.7    0.00 
  18   12:00   0.22   54.0    68   11.2   129    18.6   977.6    0.00 
  18   12:10   0.13   53.7    68   10.2   105    17.0   977.4    0.00 
  18   12:20   0.19   53.4    71   10.1    98    17.0   977.2    0.00 
  18   12:30   0.18   53.6    71    8.5    98    13.6   977.2    0.00 
  18   12:40   0.19   53.7    71    7.7   106    12.6   977.1    0.00 
  18   12:50   0.17   53.7    71    7.7    95    14.0   977.1    0.00 
  18   13:00   0.13   53.5    72    5.5   115    11.2   977.5    0.00 
  18   13:10   0.14   53.0    74    8.1   142    12.9   977.9    0.00 
  18   13:20   0.13   52.8    74    6.7   152    12.3   978.2    0.00 
  18   13:30   0.15   52.5    76    6.3   179    11.4   977.9    0.00 
  18   13:40   0.20   52.4    78    6.4   174    10.8   977.5    0.00 
  18   13:50   0.16   52.4    78    7.1   158    12.3   977.3    0.00 
  18   14:00   0.07   52.6    77    5.6   184     8.4   977.5    0.00 
  18   14:10   0.08   52.4    76    3.4   209     6.0   977.5    0.00 
  18   14:20   0.08   52.4    76    3.6   211     6.6   977.6    0.00 
  18   14:30   0.08   52.5    76    3.3   192     6.0   977.6    0.00 
  18   14:40   0.08   52.5    75    3.7   209     6.4   977.6    0.00 
  18   14:50   0.06   52.4    75    4.7   228     7.2   977.9    0.00 
  18   15:00   0.06   52.3    76    3.9   238     5.8   978.1    0.00 
  18   15:10   0.05   52.3    76    3.7   228     6.4   978.0    0.00 
  18   15:20   0.03   52.3    76    2.3   169     3.7   977.9    0.00 
  18   15:30   0.01   52.3    76    2.9    88     4.6   977.7    0.00 
  18   15:40   0.01   51.9    78    2.3    97     3.6   977.6    0.00 
  18   15:50   0.01   51.5    80    6.0    69    12.0   977.3    0.00 
  18   16:00   0.01   50.6    82    7.9    78    13.0   976.9    0.02 
  18   16:10   0.01   50.1    84    3.8    97     9.3   976.8    0.01 
  18   16:20   0.00   49.5    87    4.4   184     6.3   976.9    0.02 
  18   16:30   0.00   49.4    84    3.4   117     6.4   977.0    0.01 
  18   16:40   0.00   49.0    87    3.4   114     5.4   976.9    0.02 
  18   16:50   0.00   48.2    89    4.7    81     7.8   976.3    0.02 
  18   17:00   0.00   48.0    86    6.9    88    10.4   975.8    0.00 
  18   17:10   0.00   48.3    82    7.4    93    10.5   975.2    0.00 
  18   17:20   0.00   49.0    78    8.5   107    15.8   974.6    0.01 
  18   17:30   0.00   48.8    80    7.9   115    14.0   974.3    0.00 
  18   17:40   0.00   49.4    76   12.4    92    19.9   974.1    0.00 
  18   17:50   0.00   49.4    77   10.8    91    18.6   973.8    0.00 
  18   18:00   0.00   49.3    78    9.4   106    18.0   973.6    0.01 
  18   18:10   0.00   49.6    76   11.4    94    21.3   973.2    0.00 
  18   18:20   0.00   50.0    75   11.2   100    17.0   973.0    0.00 
  18   18:30   0.00   50.6    73   10.6   104    18.0   973.1    0.00 
  18   18:40   0.00   51.1    72   12.2    88    22.4   972.7    0.00 
  18   18:50   0.00   51.6    70   15.1    90    21.8   972.4    0.00 
  18   19:00   0.00   52.1    68   12.0   106    20.8   972.7    0.00 
  18   19:10   0.00   52.3    68   12.4    93    25.4   972.6    0.00 
  18   19:20   0.00   52.2    68   11.8    89    19.1   972.5    0.00 
  18   19:30   0.00   52.5    67   12.5    91    20.2   972.3    0.00 
  18   19:40   0.00   52.7    66   10.8   104    18.8   972.5    0.00 
  18   19:50   0.00   53.2    65   10.0   113    20.9   972.6    0.00 
  18   20:00   0.00   53.4    64   13.3   120    23.2   972.7    0.00 
  18   20:10   0.00   53.5    63   12.5   116    21.3   972.8    0.00 
  18   20:20   0.00   53.4    64   13.7   118    21.4   972.8    0.00 
  18   20:30   0.00   52.8    67   11.2   124    21.4   972.9    0.00 
  18   20:40   0.00   52.6    66   12.5   106    19.4   972.9    0.00 
  18   20:50   0.00   52.9    65   12.7   106    22.3   972.9    0.00 
  18   21:00   0.00   52.8    66   10.2   110    17.8   972.7    0.00 
  18   21:10   0.00   52.3    68   12.0   107    21.5   972.5    0.00 
  18   21:20   0.00   52.3    67   11.8   117    21.8   972.5    0.00 
  18   21:30   0.00   51.9    70   11.6   137    20.8   972.8    0.00 
  18   21:40   0.00   51.6    70   11.9   147    18.8   972.9    0.00 
  18   21:50   0.00   51.5    70   11.1   119    21.9   972.5    0.00 
  18   22:00   0.00   51.8    69   11.0   120    19.3   972.5    0.00 
  18   22:10   0.00   51.4    71   12.1   136    20.8   972.5    0.00 
  18   22:20   0.00   51.0    74   12.1   138    20.7   972.6    0.00 
  18   22:30   0.00   50.9    75   11.7   129    20.5   972.9    0.01 
  18   22:40   0.00   50.6    75   11.1   115    21.3   972.6    0.01 
  18   22:50   0.00   51.2    72   14.3   127    27.8   972.6    0.00 
  18   23:00   0.00   50.9    74   13.2   118    24.8   972.6    0.00 
  18   23:10   0.00   50.7    76   10.7   118    23.9   972.6    0.00 
  18   23:20   0.00   50.4    77   11.6   111    20.2   972.7    0.00 
  18   23:30   0.00   50.3    79   10.0   117    17.2   972.6    0.00 
  18   23:40   0.00   50.0    81   10.6   115    25.1   972.4    0.00 
  18   23:50   0.00   50.2    82   16.7   110    25.8   972.2    0.00 
  19    0:00   0.00   50.0    83   12.5   108    20.8   972.4    0.00 
  19    0:10   0.00   49.5    86    9.4   112    17.0   972.3    0.01 
  19    0:20   0.00   49.2    88   11.0   109    19.8   972.1    0.01 
  19    0:30   0.00   49.1    90    8.6   101    14.0   972.0    0.01 

Return to Sedgwick Reserve graphs page.


Western Regional Climate Center,wrcc@dri.edu